sensor_id;sensor_type;location;lat;lon;timestamp;temperature;humidity
22771;DHT22;11552;50.786;4.332;2022-11-23T00:02:15;9.90;99.90
22771;DHT22;11552;50.786;4.332;2022-11-23T00:04:40;9.90;99.90
22771;DHT22;11552;50.786;4.332;2022-11-23T00:10:17;9.90;99.90
22771;DHT22;11552;50.786;4.332;2022-11-23T00:12:43;9.80;99.90
22771;DHT22;11552;50.786;4.332;2022-11-23T00:15:08;9.90;99.90
22771;DHT22;11552;50.786;4.332;2022-11-23T00:18:14;9.90;99.90
22771;DHT22;11552;50.786;4.332;2022-11-23T00:21:34;9.90;99.90
22771;DHT22;11552;50.786;4.332;2022-11-23T00:23:59;10.00;99.90
22771;DHT22;11552;50.786;4.332;2022-11-23T00:26:25;9.90;99.90
22771;DHT22;11552;50.786;4.332;2022-11-23T00:28:50;10.00;99.90
22771;DHT22;11552;50.786;4.332;2022-11-23T00:31:17;9.90;99.90
22771;DHT22;11552;50.786;4.332;2022-11-23T00:33:47;10.10;99.90
22771;DHT22;11552;50.786;4.332;2022-11-23T00:36:13;10.10;99.90
22771;DHT22;11552;50.786;4.332;2022-11-23T00:38:39;10.10;99.90
22771;DHT22;11552;50.786;4.332;2022-11-23T00:41:06;10.10;99.90
22771;DHT22;11552;50.786;4.332;2022-11-23T00:45:33;10.10;99.90
22771;DHT22;11552;50.786;4.332;2022-11-23T00:49:53;10.20;99.90
22771;DHT22;11552;50.786;4.332;2022-11-23T00:52:18;10.10;99.90
22771;DHT22;11552;50.786;4.332;2022-11-23T00:54:44;10.00;99.90
22771;DHT22;11552;50.786;4.332;2022-11-23T00:57:09;10.00;99.90
22771;DHT22;11552;50.786;4.332;2022-11-23T00:59:35;10.00;99.90
22771;DHT22;11552;50.786;4.332;2022-11-23T01:02:00;9.90;99.90
22771;DHT22;11552;50.786;4.332;2022-11-23T01:04:25;9.90;99.90
22771;DHT22;11552;50.786;4.332;2022-11-23T01:06:53;9.90;99.90
22771;DHT22;11552;50.786;4.332;2022-11-23T01:09:19;9.90;99.90
22771;DHT22;11552;50.786;4.332;2022-11-23T01:11:49;9.90;99.90
22771;DHT22;11552;50.786;4.332;2022-11-23T01:14:14;10.00;99.90
22771;DHT22;11552;50.786;4.332;2022-11-23T01:17:36;10.00;99.90
22771;DHT22;11552;50.786;4.332;2022-11-23T01:20:01;9.90;99.90
22771;DHT22;11552;50.786;4.332;2022-11-23T01:23:03;9.90;99.90
22771;DHT22;11552;50.786;4.332;2022-11-23T01:25:28;10.00;99.90
22771;DHT22;11552;50.786;4.332;2022-11-23T01:28:39;10.00;99.90
22771;DHT22;11552;50.786;4.332;2022-11-23T01:31:06;10.00;99.90
22771;DHT22;11552;50.786;4.332;2022-11-23T01:33:32;10.00;99.90
22771;DHT22;11552;50.786;4.332;2022-11-23T01:36:28;10.00;99.90
22771;DHT22;11552;50.786;4.332;2022-11-23T01:38:54;9.90;99.90
22771;DHT22;11552;50.786;4.332;2022-11-23T01:41:21;9.90;99.90
22771;DHT22;11552;50.786;4.332;2022-11-23T01:44:37;9.90;99.90
22771;DHT22;11552;50.786;4.332;2022-11-23T01:47:04;9.90;99.90
22771;DHT22;11552;50.786;4.332;2022-11-23T01:49:32;9.90;99.90
22771;DHT22;11552;50.786;4.332;2022-11-23T01:52:01;9.90;99.90
22771;DHT22;11552;50.786;4.332;2022-11-23T01:54:31;10.00;99.90
22771;DHT22;11552;50.786;4.332;2022-11-23T01:57:05;10.00;99.90
22771;DHT22;11552;50.786;4.332;2022-11-23T01:59:32;10.00;99.90
22771;DHT22;11552;50.786;4.332;2022-11-23T02:01:58;10.00;99.90
22771;DHT22;11552;50.786;4.332;2022-11-23T02:04:26;10.00;99.90
22771;DHT22;11552;50.786;4.332;2022-11-23T02:06:53;9.90;99.90
22771;DHT22;11552;50.786;4.332;2022-11-23T02:09:19;9.90;99.90
22771;DHT22;11552;50.786;4.332;2022-11-23T02:11:45;9.80;99.90
22771;DHT22;11552;50.786;4.332;2022-11-23T02:14:11;9.90;99.90
22771;DHT22;11552;50.786;4.332;2022-11-23T02:16:37;9.90;99.90
22771;DHT22;11552;50.786;4.332;2022-11-23T02:19:02;9.80;99.90
22771;DHT22;11552;50.786;4.332;2022-11-23T02:21:28;9.80;99.90
22771;DHT22;11552;50.786;4.332;2022-11-23T02:24:07;9.90;99.90
22771;DHT22;11552;50.786;4.332;2022-11-23T02:26:34;9.90;99.90
22771;DHT22;11552;50.786;4.332;2022-11-23T02:31:34;10.00;99.90
22771;DHT22;11552;50.786;4.332;2022-11-23T02:34:00;10.10;99.90
22771;DHT22;11552;50.786;4.332;2022-11-23T02:40:32;9.90;99.90
22771;DHT22;11552;50.786;4.332;2022-11-23T02:42:59;9.90;99.90
22771;DHT22;11552;50.786;4.332;2022-11-23T02:50:07;9.80;99.90
22771;DHT22;11552;50.786;4.332;2022-11-23T02:52:33;9.80;99.90
22771;DHT22;11552;50.786;4.332;2022-11-23T02:54:58;9.90;99.90
22771;DHT22;11552;50.786;4.332;2022-11-23T02:57:24;9.90;99.90
22771;DHT22;11552;50.786;4.332;2022-11-23T02:59:49;9.90;99.90
22771;DHT22;11552;50.786;4.332;2022-11-23T03:02:15;9.90;99.90
22771;DHT22;11552;50.786;4.332;2022-11-23T03:05:31;9.90;99.90
22771;DHT22;11552;50.786;4.332;2022-11-23T03:07:57;9.90;99.90
22771;DHT22;11552;50.786;4.332;2022-11-23T03:10:22;9.80;99.90
22771;DHT22;11552;50.786;4.332;2022-11-23T03:12:48;9.80;99.90
22771;DHT22;11552;50.786;4.332;2022-11-23T03:15:13;9.80;99.90
22771;DHT22;11552;50.786;4.332;2022-11-23T03:17:39;9.80;99.90
22771;DHT22;11552;50.786;4.332;2022-11-23T03:20:04;9.90;99.90
22771;DHT22;11552;50.786;4.332;2022-11-23T03:22:30;9.80;99.90
22771;DHT22;11552;50.786;4.332;2022-11-23T03:24:56;9.90;99.90
22771;DHT22;11552;50.786;4.332;2022-11-23T03:27:21;9.80;99.90
22771;DHT22;11552;50.786;4.332;2022-11-23T03:29:47;9.80;99.90
22771;DHT22;11552;50.786;4.332;2022-11-23T03:32:12;9.80;99.90
22771;DHT22;11552;50.786;4.332;2022-11-23T03:34:38;9.90;99.90
22771;DHT22;11552;50.786;4.332;2022-11-23T03:37:03;9.80;99.90
22771;DHT22;11552;50.786;4.332;2022-11-23T03:39:29;9.80;99.90
22771;DHT22;11552;50.786;4.332;2022-11-23T03:41:54;9.80;99.90
22771;DHT22;11552;50.786;4.332;2022-11-23T03:44:20;9.80;99.90
22771;DHT22;11552;50.786;4.332;2022-11-23T03:46:46;9.60;99.90
22771;DHT22;11552;50.786;4.332;2022-11-23T03:49:11;9.60;99.90
22771;DHT22;11552;50.786;4.332;2022-11-23T03:51:37;9.60;99.90
22771;DHT22;11552;50.786;4.332;2022-11-23T03:54:02;9.70;99.90
22771;DHT22;11552;50.786;4.332;2022-11-23T03:56:28;9.80;99.90
22771;DHT22;11552;50.786;4.332;2022-11-23T03:58:53;9.90;99.90
22771;DHT22;11552;50.786;4.332;2022-11-23T04:01:19;9.80;99.90
22771;DHT22;11552;50.786;4.332;2022-11-23T04:03:44;10.00;99.90
22771;DHT22;11552;50.786;4.332;2022-11-23T04:06:10;9.90;99.90
22771;DHT22;11552;50.786;4.332;2022-11-23T04:08:35;9.90;99.90
22771;DHT22;11552;50.786;4.332;2022-11-23T04:11:01;9.80;99.90
22771;DHT22;11552;50.786;4.332;2022-11-23T04:13:27;9.80;99.90
22771;DHT22;11552;50.786;4.332;2022-11-23T04:15:52;9.80;99.90
22771;DHT22;11552;50.786;4.332;2022-11-23T04:18:18;9.70;99.90
22771;DHT22;11552;50.786;4.332;2022-11-23T04:20:43;9.70;99.90
22771;DHT22;11552;50.786;4.332;2022-11-23T04:23:09;9.70;99.90
22771;DHT22;11552;50.786;4.332;2022-11-23T04:25:34;9.60;99.90
22771;DHT22;11552;50.786;4.332;2022-11-23T04:28:00;9.60;99.90
22771;DHT22;11552;50.786;4.332;2022-11-23T04:32:10;9.80;99.90
22771;DHT22;11552;50.786;4.332;2022-11-23T04:38:08;9.60;99.90
22771;DHT22;11552;50.786;4.332;2022-11-23T04:42:41;9.60;99.90
22771;DHT22;11552;50.786;4.332;2022-11-23T04:45:06;9.60;99.90
22771;DHT22;11552;50.786;4.332;2022-11-23T04:47:32;9.50;99.90
22771;DHT22;11552;50.786;4.332;2022-11-23T04:52:14;9.50;99.90
22771;DHT22;11552;50.786;4.332;2022-11-23T04:54:40;9.10;99.90
22771;DHT22;11552;50.786;4.332;2022-11-23T04:57:05;9.00;99.90
22771;DHT22;11552;50.786;4.332;2022-11-23T05:01:05;9.00;99.90
22771;DHT22;11552;50.786;4.332;2022-11-23T05:03:30;9.10;99.90
22771;DHT22;11552;50.786;4.332;2022-11-23T05:06:22;9.00;99.90
22771;DHT22;11552;50.786;4.332;2022-11-23T05:08:48;8.90;99.90
22771;DHT22;11552;50.786;4.332;2022-11-23T05:11:13;8.90;99.90
22771;DHT22;11552;50.786;4.332;2022-11-23T05:13:39;8.80;99.90
22771;DHT22;11552;50.786;4.332;2022-11-23T05:16:04;8.80;99.90
22771;DHT22;11552;50.786;4.332;2022-11-23T05:18:30;8.70;99.90
22771;DHT22;11552;50.786;4.332;2022-11-23T05:20:55;8.70;99.90
22771;DHT22;11552;50.786;4.332;2022-11-23T05:23:21;8.70;99.90
22771;DHT22;11552;50.786;4.332;2022-11-23T05:25:46;8.70;99.90
22771;DHT22;11552;50.786;4.332;2022-11-23T05:28:16;8.60;99.90
22771;DHT22;11552;50.786;4.332;2022-11-23T05:30:42;8.50;99.90
22771;DHT22;11552;50.786;4.332;2022-11-23T05:33:07;8.60;99.90
22771;DHT22;11552;50.786;4.332;2022-11-23T05:35:33;8.50;99.90
22771;DHT22;11552;50.786;4.332;2022-11-23T05:40:06;8.70;99.90
22771;DHT22;11552;50.786;4.332;2022-11-23T05:42:32;8.60;99.90
22771;DHT22;11552;50.786;4.332;2022-11-23T05:44:57;8.80;99.90
22771;DHT22;11552;50.786;4.332;2022-11-23T05:47:23;8.80;99.90
22771;DHT22;11552;50.786;4.332;2022-11-23T05:51:22;8.80;99.90
22771;DHT22;11552;50.786;4.332;2022-11-23T05:53:47;8.80;99.90
22771;DHT22;11552;50.786;4.332;2022-11-23T05:56:13;8.80;99.90
22771;DHT22;11552;50.786;4.332;2022-11-23T05:58:38;8.80;99.90
22771;DHT22;11552;50.786;4.332;2022-11-23T06:01:04;8.90;99.90
22771;DHT22;11552;50.786;4.332;2022-11-23T06:03:29;8.60;99.90
22771;DHT22;11552;50.786;4.332;2022-11-23T06:05:55;8.60;99.90
22771;DHT22;11552;50.786;4.332;2022-11-23T06:08:20;8.60;99.90
22771;DHT22;11552;50.786;4.332;2022-11-23T06:10:46;8.60;99.90
22771;DHT22;11552;50.786;4.332;2022-11-23T06:18:34;8.70;99.90
22771;DHT22;11552;50.786;4.332;2022-11-23T06:20:59;8.50;99.90
22771;DHT22;11552;50.786;4.332;2022-11-23T06:23:25;8.40;99.90
22771;DHT22;11552;50.786;4.332;2022-11-23T06:25:51;8.30;99.90
22771;DHT22;11552;50.786;4.332;2022-11-23T06:28:16;8.40;99.90
22771;DHT22;11552;50.786;4.332;2022-11-23T06:30:42;8.50;99.90
22771;DHT22;11552;50.786;4.332;2022-11-23T06:33:08;8.50;99.90
22771;DHT22;11552;50.786;4.332;2022-11-23T06:35:33;8.50;99.90
22771;DHT22;11552;50.786;4.332;2022-11-23T06:37:59;8.50;99.90
22771;DHT22;11552;50.786;4.332;2022-11-23T06:40:24;8.30;99.90
22771;DHT22;11552;50.786;4.332;2022-11-23T06:42:50;8.30;99.90
22771;DHT22;11552;50.786;4.332;2022-11-23T06:45:18;8.20;99.90
22771;DHT22;11552;50.786;4.332;2022-11-23T06:47:43;8.20;99.90
22771;DHT22;11552;50.786;4.332;2022-11-23T06:50:09;8.00;99.90
22771;DHT22;11552;50.786;4.332;2022-11-23T06:52:34;8.00;99.90
22771;DHT22;11552;50.786;4.332;2022-11-23T06:55:00;8.00;99.90
22771;DHT22;11552;50.786;4.332;2022-11-23T06:59:48;7.90;99.90
22771;DHT22;11552;50.786;4.332;2022-11-23T07:02:14;8.00;99.90
22771;DHT22;11552;50.786;4.332;2022-11-23T07:04:39;7.90;99.90
22771;DHT22;11552;50.786;4.332;2022-11-23T07:07:07;7.80;99.90
22771;DHT22;11552;50.786;4.332;2022-11-23T07:09:33;7.80;99.90
22771;DHT22;11552;50.786;4.332;2022-11-23T07:11:59;7.90;99.90
22771;DHT22;11552;50.786;4.332;2022-11-23T07:14:24;7.70;99.90
22771;DHT22;11552;50.786;4.332;2022-11-23T07:17:15;7.70;99.90
22771;DHT22;11552;50.786;4.332;2022-11-23T07:19:40;7.80;99.90
22771;DHT22;11552;50.786;4.332;2022-11-23T07:22:06;7.80;99.90
22771;DHT22;11552;50.786;4.332;2022-11-23T07:24:31;7.70;99.90
22771;DHT22;11552;50.786;4.332;2022-11-23T07:26:57;7.60;99.90
22771;DHT22;11552;50.786;4.332;2022-11-23T07:31:08;7.60;99.90
22771;DHT22;11552;50.786;4.332;2022-11-23T07:33:33;7.80;99.90
22771;DHT22;11552;50.786;4.332;2022-11-23T07:35:59;7.80;99.90
22771;DHT22;11552;50.786;4.332;2022-11-23T07:40:41;7.60;99.90
22771;DHT22;11552;50.786;4.332;2022-11-23T07:45:25;7.60;99.90
22771;DHT22;11552;50.786;4.332;2022-11-23T07:48:00;7.60;99.90
22771;DHT22;11552;50.786;4.332;2022-11-23T07:50:26;7.60;99.90
22771;DHT22;11552;50.786;4.332;2022-11-23T07:52:52;7.60;99.90
22771;DHT22;11552;50.786;4.332;2022-11-23T07:55:18;7.70;99.90
22771;DHT22;11552;50.786;4.332;2022-11-23T07:57:43;7.70;99.90
22771;DHT22;11552;50.786;4.332;2022-11-23T08:00:09;7.60;99.90
22771;DHT22;11552;50.786;4.332;2022-11-23T08:04:12;7.70;99.90
22771;DHT22;11552;50.786;4.332;2022-11-23T08:06:37;7.60;99.90
22771;DHT22;11552;50.786;4.332;2022-11-23T08:09:03;7.70;99.90
22771;DHT22;11552;50.786;4.332;2022-11-23T08:11:28;7.90;99.90
22771;DHT22;11552;50.786;4.332;2022-11-23T08:13:54;8.00;99.90
22771;DHT22;11552;50.786;4.332;2022-11-23T08:16:19;8.20;99.90
22771;DHT22;11552;50.786;4.332;2022-11-23T08:18:45;8.20;99.90
22771;DHT22;11552;50.786;4.332;2022-11-23T08:21:10;8.50;99.90
22771;DHT22;11552;50.786;4.332;2022-11-23T08:24:57;8.60;99.90
22771;DHT22;11552;50.786;4.332;2022-11-23T08:27:23;8.70;99.90
22771;DHT22;11552;50.786;4.332;2022-11-23T08:29:48;8.70;99.90
22771;DHT22;11552;50.786;4.332;2022-11-23T08:32:14;8.80;99.90
22771;DHT22;11552;50.786;4.332;2022-11-23T08:34:41;8.90;99.90
22771;DHT22;11552;50.786;4.332;2022-11-23T08:37:06;9.00;99.90
22771;DHT22;11552;50.786;4.332;2022-11-23T08:39:32;8.90;99.90
22771;DHT22;11552;50.786;4.332;2022-11-23T08:41:57;8.90;99.90
22771;DHT22;11552;50.786;4.332;2022-11-23T08:44:23;9.00;99.90
22771;DHT22;11552;50.786;4.332;2022-11-23T08:46:48;9.10;99.90
22771;DHT22;11552;50.786;4.332;2022-11-23T08:49:15;9.10;99.90
22771;DHT22;11552;50.786;4.332;2022-11-23T08:51:40;9.20;99.90
22771;DHT22;11552;50.786;4.332;2022-11-23T08:54:06;9.20;99.90
22771;DHT22;11552;50.786;4.332;2022-11-23T08:56:31;9.20;99.90
22771;DHT22;11552;50.786;4.332;2022-11-23T09:02:31;9.10;99.90
22771;DHT22;11552;50.786;4.332;2022-11-23T09:04:57;9.00;99.90
22771;DHT22;11552;50.786;4.332;2022-11-23T09:07:22;9.10;99.90
22771;DHT22;11552;50.786;4.332;2022-11-23T09:09:48;9.10;99.90
22771;DHT22;11552;50.786;4.332;2022-11-23T09:12:14;9.30;99.90
22771;DHT22;11552;50.786;4.332;2022-11-23T09:14:39;9.50;99.90
22771;DHT22;11552;50.786;4.332;2022-11-23T09:18:56;9.40;99.90
22771;DHT22;11552;50.786;4.332;2022-11-23T09:21:21;9.70;99.90
22771;DHT22;11552;50.786;4.332;2022-11-23T09:23:47;9.70;99.90
22771;DHT22;11552;50.786;4.332;2022-11-23T09:26:12;9.60;99.90
22771;DHT22;11552;50.786;4.332;2022-11-23T09:28:38;9.70;99.90
22771;DHT22;11552;50.786;4.332;2022-11-23T09:31:04;9.60;99.90
22771;DHT22;11552;50.786;4.332;2022-11-23T09:33:29;9.60;99.90
22771;DHT22;11552;50.786;4.332;2022-11-23T09:36:03;9.50;99.90
22771;DHT22;11552;50.786;4.332;2022-11-23T09:38:29;9.50;99.90
22771;DHT22;11552;50.786;4.332;2022-11-23T09:44:00;9.80;99.90
22771;DHT22;11552;50.786;4.332;2022-11-23T09:52:13;10.10;99.90
22771;DHT22;11552;50.786;4.332;2022-11-23T09:54:40;10.20;99.90
22771;DHT22;11552;50.786;4.332;2022-11-23T09:57:06;10.30;99.90
22771;DHT22;11552;50.786;4.332;2022-11-23T09:59:39;10.50;99.90
22771;DHT22;11552;50.786;4.332;2022-11-23T10:02:05;10.70;99.90
22771;DHT22;11552;50.786;4.332;2022-11-23T10:04:39;10.60;99.90
22771;DHT22;11552;50.786;4.332;2022-11-23T10:07:17;10.60;99.90
22771;DHT22;11552;50.786;4.332;2022-11-23T10:14:50;10.10;99.90
22771;DHT22;11552;50.786;4.332;2022-11-23T10:25:03;9.90;99.90
22771;DHT22;11552;50.786;4.332;2022-11-23T10:27:33;10.00;99.90
22771;DHT22;11552;50.786;4.332;2022-11-23T10:29:58;10.10;99.90
22771;DHT22;11552;50.786;4.332;2022-11-23T10:32:30;10.20;99.90
22771;DHT22;11552;50.786;4.332;2022-11-23T10:35:05;10.30;99.90
22771;DHT22;11552;50.786;4.332;2022-11-23T10:37:31;10.30;99.90
22771;DHT22;11552;50.786;4.332;2022-11-23T10:40:23;10.40;99.90
22771;DHT22;11552;50.786;4.332;2022-11-23T10:44:37;10.50;99.90
22771;DHT22;11552;50.786;4.332;2022-11-23T10:47:03;10.50;99.90
22771;DHT22;11552;50.786;4.332;2022-11-23T10:49:30;10.50;99.90
22771;DHT22;11552;50.786;4.332;2022-11-23T10:52:51;10.40;99.90
22771;DHT22;11552;50.786;4.332;2022-11-23T10:55:17;10.60;99.90
22771;DHT22;11552;50.786;4.332;2022-11-23T11:02:47;11.00;99.90
22771;DHT22;11552;50.786;4.332;2022-11-23T11:07:40;11.00;99.90
22771;DHT22;11552;50.786;4.332;2022-11-23T11:10:25;11.30;99.90
22771;DHT22;11552;50.786;4.332;2022-11-23T11:12:51;11.20;99.90
22771;DHT22;11552;50.786;4.332;2022-11-23T11:15:17;11.30;99.90
22771;DHT22;11552;50.786;4.332;2022-11-23T11:17:42;11.50;99.90
22771;DHT22;11552;50.786;4.332;2022-11-23T11:20:51;11.50;99.90
22771;DHT22;11552;50.786;4.332;2022-11-23T11:24:36;11.60;99.90
22771;DHT22;11552;50.786;4.332;2022-11-23T11:27:04;11.80;99.90
22771;DHT22;11552;50.786;4.332;2022-11-23T11:33:42;12.00;99.90
22771;DHT22;11552;50.786;4.332;2022-11-23T11:37:31;11.90;99.90
22771;DHT22;11552;50.786;4.332;2022-11-23T11:40:05;12.00;99.90
22771;DHT22;11552;50.786;4.332;2022-11-23T11:42:34;12.00;99.90
22771;DHT22;11552;50.786;4.332;2022-11-23T11:45:02;12.00;99.90
22771;DHT22;11552;50.786;4.332;2022-11-23T11:47:49;12.00;99.90
22771;DHT22;11552;50.786;4.332;2022-11-23T11:50:22;12.00;99.90
22771;DHT22;11552;50.786;4.332;2022-11-23T11:52:49;12.20;99.90
22771;DHT22;11552;50.786;4.332;2022-11-23T11:55:21;12.20;99.90
22771;DHT22;11552;50.786;4.332;2022-11-23T11:57:49;12.20;99.90
22771;DHT22;11552;50.786;4.332;2022-11-23T12:00:16;11.90;99.90
22771;DHT22;11552;50.786;4.332;2022-11-23T12:05:19;12.10;99.90
22771;DHT22;11552;50.786;4.332;2022-11-23T12:07:49;12.00;99.90
22771;DHT22;11552;50.786;4.332;2022-11-23T12:15:20;11.90;99.90
22771;DHT22;11552;50.786;4.332;2022-11-23T12:25:30;11.80;99.90
22771;DHT22;11552;50.786;4.332;2022-11-23T12:38:14;11.30;99.90
22771;DHT22;11552;50.786;4.332;2022-11-23T12:40:58;11.20;99.90
22771;DHT22;11552;50.786;4.332;2022-11-23T12:43:31;11.00;99.90
22771;DHT22;11552;50.786;4.332;2022-11-23T12:46:08;10.90;99.90
22771;DHT22;11552;50.786;4.332;2022-11-23T12:50:07;10.80;99.90
22771;DHT22;11552;50.786;4.332;2022-11-23T13:00:27;10.60;99.90
22771;DHT22;11552;50.786;4.332;2022-11-23T13:08:05;10.30;99.90
22771;DHT22;11552;50.786;4.332;2022-11-23T13:13:14;10.20;99.90
22771;DHT22;11552;50.786;4.332;2022-11-23T13:23:53;10.20;99.90
22771;DHT22;11552;50.786;4.332;2022-11-23T13:26:20;10.10;99.90
22771;DHT22;11552;50.786;4.332;2022-11-23T13:28:47;10.00;99.90
22771;DHT22;11552;50.786;4.332;2022-11-23T13:33:42;9.90;99.90
22771;DHT22;11552;50.786;4.332;2022-11-23T13:36:11;9.90;99.90
22771;DHT22;11552;50.786;4.332;2022-11-23T13:38:41;10.00;99.90
22771;DHT22;11552;50.786;4.332;2022-11-23T13:43:51;9.80;99.90
22771;DHT22;11552;50.786;4.332;2022-11-23T13:46:23;9.80;99.90
22771;DHT22;11552;50.786;4.332;2022-11-23T13:48:56;9.70;99.90
22771;DHT22;11552;50.786;4.332;2022-11-23T13:51:25;9.80;99.90
22771;DHT22;11552;50.786;4.332;2022-11-23T13:53:52;9.70;99.90
22771;DHT22;11552;50.786;4.332;2022-11-23T13:56:23;9.70;99.90
22771;DHT22;11552;50.786;4.332;2022-11-23T13:58:55;9.60;99.90
22771;DHT22;11552;50.786;4.332;2022-11-23T14:04:21;9.60;99.90
22771;DHT22;11552;50.786;4.332;2022-11-23T14:06:47;9.70;99.90
22771;DHT22;11552;50.786;4.332;2022-11-23T14:09:34;9.80;99.90
22771;DHT22;11552;50.786;4.332;2022-11-23T14:30:22;9.80;99.90
22771;DHT22;11552;50.786;4.332;2022-11-23T14:33:02;9.70;99.90
22771;DHT22;11552;50.786;4.332;2022-11-23T14:43:00;9.70;99.90
22771;DHT22;11552;50.786;4.332;2022-11-23T14:46:28;9.70;99.90
22771;DHT22;11552;50.786;4.332;2022-11-23T14:49:04;9.90;99.90
22771;DHT22;11552;50.786;4.332;2022-11-23T14:51:31;10.00;99.90
22771;DHT22;11552;50.786;4.332;2022-11-23T14:54:50;10.00;99.90
22771;DHT22;11552;50.786;4.332;2022-11-23T14:57:16;10.10;99.90
22771;DHT22;11552;50.786;4.332;2022-11-23T14:59:45;10.20;99.90
22771;DHT22;11552;50.786;4.332;2022-11-23T15:02:22;10.20;99.90
22771;DHT22;11552;50.786;4.332;2022-11-23T15:05:03;10.30;99.90
22771;DHT22;11552;50.786;4.332;2022-11-23T15:07:44;10.20;99.90
22771;DHT22;11552;50.786;4.332;2022-11-23T15:13:16;10.10;99.90
22771;DHT22;11552;50.786;4.332;2022-11-23T15:15:43;10.10;99.90
22771;DHT22;11552;50.786;4.332;2022-11-23T15:18:09;10.10;99.90
22771;DHT22;11552;50.786;4.332;2022-11-23T15:20:39;10.20;99.90
22771;DHT22;11552;50.786;4.332;2022-11-23T15:23:05;10.20;99.90
22771;DHT22;11552;50.786;4.332;2022-11-23T15:25:31;10.20;99.90
22771;DHT22;11552;50.786;4.332;2022-11-23T15:27:56;10.20;99.90
22771;DHT22;11552;50.786;4.332;2022-11-23T15:30:26;10.10;99.90
22771;DHT22;11552;50.786;4.332;2022-11-23T15:32:53;10.00;99.90
22771;DHT22;11552;50.786;4.332;2022-11-23T15:35:19;10.00;99.90
22771;DHT22;11552;50.786;4.332;2022-11-23T15:37:46;9.90;99.90
22771;DHT22;11552;50.786;4.332;2022-11-23T15:40:15;9.80;99.90
22771;DHT22;11552;50.786;4.332;2022-11-23T15:42:42;9.70;99.90
22771;DHT22;11552;50.786;4.332;2022-11-23T15:47:54;9.60;99.90
22771;DHT22;11552;50.786;4.332;2022-11-23T15:50:20;9.60;99.90
22771;DHT22;11552;50.786;4.332;2022-11-23T15:53:16;9.50;99.90
22771;DHT22;11552;50.786;4.332;2022-11-23T15:55:42;9.60;99.90
22771;DHT22;11552;50.786;4.332;2022-11-23T15:58:07;9.50;99.90
22771;DHT22;11552;50.786;4.332;2022-11-23T16:01:32;9.30;99.90
22771;DHT22;11552;50.786;4.332;2022-11-23T16:03:59;9.20;99.90
22771;DHT22;11552;50.786;4.332;2022-11-23T16:09:00;9.20;99.90
22771;DHT22;11552;50.786;4.332;2022-11-23T16:11:32;9.20;99.90
22771;DHT22;11552;50.786;4.332;2022-11-23T16:14:18;9.20;99.90
22771;DHT22;11552;50.786;4.332;2022-11-23T16:16:45;9.10;99.90
22771;DHT22;11552;50.786;4.332;2022-11-23T16:22:07;9.10;99.90
22771;DHT22;11552;50.786;4.332;2022-11-23T16:24:41;9.00;99.90
22771;DHT22;11552;50.786;4.332;2022-11-23T16:27:12;9.10;99.90
22771;DHT22;11552;50.786;4.332;2022-11-23T16:29:38;8.90;99.90
22771;DHT22;11552;50.786;4.332;2022-11-23T16:32:04;8.90;99.90
22771;DHT22;11552;50.786;4.332;2022-11-23T16:36:17;8.80;99.90
22771;DHT22;11552;50.786;4.332;2022-11-23T16:38:43;8.80;99.90
22771;DHT22;11552;50.786;4.332;2022-11-23T16:41:09;8.80;99.90
22771;DHT22;11552;50.786;4.332;2022-11-23T16:43:34;8.90;99.90
22771;DHT22;11552;50.786;4.332;2022-11-23T16:46:00;8.80;99.90
22771;DHT22;11552;50.786;4.332;2022-11-23T16:50:52;8.90;99.90
22771;DHT22;11552;50.786;4.332;2022-11-23T16:53:18;8.80;99.90
22771;DHT22;11552;50.786;4.332;2022-11-23T16:55:44;8.80;99.90
22771;DHT22;11552;50.786;4.332;2022-11-23T16:58:12;9.00;99.90
22771;DHT22;11552;50.786;4.332;2022-11-23T17:00:38;9.00;99.90
22771;DHT22;11552;50.786;4.332;2022-11-23T17:03:04;9.00;99.90
22771;DHT22;11552;50.786;4.332;2022-11-23T17:05:29;9.10;99.90
22771;DHT22;11552;50.786;4.332;2022-11-23T17:07:55;9.10;99.90
22771;DHT22;11552;50.786;4.332;2022-11-23T17:10:20;9.10;99.90
22771;DHT22;11552;50.786;4.332;2022-11-23T17:12:48;9.20;99.90
22771;DHT22;11552;50.786;4.332;2022-11-23T17:15:15;9.20;99.90
22771;DHT22;11552;50.786;4.332;2022-11-23T17:17:41;9.30;99.90
22771;DHT22;11552;50.786;4.332;2022-11-23T17:20:08;9.40;99.90
22771;DHT22;11552;50.786;4.332;2022-11-23T17:22:36;9.40;99.90
22771;DHT22;11552;50.786;4.332;2022-11-23T17:25:01;9.40;99.90
22771;DHT22;11552;50.786;4.332;2022-11-23T17:27:27;9.40;99.90
22771;DHT22;11552;50.786;4.332;2022-11-23T17:29:57;9.30;99.90
22771;DHT22;11552;50.786;4.332;2022-11-23T17:32:23;9.30;99.90
22771;DHT22;11552;50.786;4.332;2022-11-23T17:34:49;9.30;99.90
22771;DHT22;11552;50.786;4.332;2022-11-23T17:37:18;9.30;99.90
22771;DHT22;11552;50.786;4.332;2022-11-23T17:39:45;9.30;99.90
22771;DHT22;11552;50.786;4.332;2022-11-23T17:42:11;9.30;99.90
22771;DHT22;11552;50.786;4.332;2022-11-23T17:46:42;9.30;99.90
22771;DHT22;11552;50.786;4.332;2022-11-23T17:49:09;9.30;99.90
22771;DHT22;11552;50.786;4.332;2022-11-23T17:52:01;9.40;99.90
22771;DHT22;11552;50.786;4.332;2022-11-23T17:54:26;9.30;99.90
22771;DHT22;11552;50.786;4.332;2022-11-23T17:56:52;9.30;99.90
22771;DHT22;11552;50.786;4.332;2022-11-23T17:59:17;9.30;99.90
22771;DHT22;11552;50.786;4.332;2022-11-23T18:01:43;9.30;99.90
22771;DHT22;11552;50.786;4.332;2022-11-23T18:04:09;9.20;99.90
22771;DHT22;11552;50.786;4.332;2022-11-23T18:06:34;9.20;99.90
22771;DHT22;11552;50.786;4.332;2022-11-23T18:09:00;9.30;99.90
22771;DHT22;11552;50.786;4.332;2022-11-23T18:11:25;9.30;99.90
22771;DHT22;11552;50.786;4.332;2022-11-23T18:13:52;9.40;99.90
22771;DHT22;11552;50.786;4.332;2022-11-23T18:16:20;9.30;99.90
22771;DHT22;11552;50.786;4.332;2022-11-23T18:18:45;9.30;99.90
22771;DHT22;11552;50.786;4.332;2022-11-23T18:21:11;9.50;99.90
22771;DHT22;11552;50.786;4.332;2022-11-23T18:23:39;9.40;99.90
22771;DHT22;11552;50.786;4.332;2022-11-23T18:26:10;9.50;99.90
22771;DHT22;11552;50.786;4.332;2022-11-23T18:28:37;9.50;99.90
22771;DHT22;11552;50.786;4.332;2022-11-23T18:31:03;9.50;99.90
22771;DHT22;11552;50.786;4.332;2022-11-23T18:33:43;9.50;99.90
22771;DHT22;11552;50.786;4.332;2022-11-23T18:36:08;9.60;99.90
22771;DHT22;11552;50.786;4.332;2022-11-23T18:38:35;9.60;99.90
22771;DHT22;11552;50.786;4.332;2022-11-23T18:41:00;9.50;99.90
22771;DHT22;11552;50.786;4.332;2022-11-23T18:43:26;9.40;99.90
22771;DHT22;11552;50.786;4.332;2022-11-23T18:45:51;9.40;99.90
22771;DHT22;11552;50.786;4.332;2022-11-23T18:48:17;9.40;99.90
22771;DHT22;11552;50.786;4.332;2022-11-23T18:51:49;9.50;99.90
22771;DHT22;11552;50.786;4.332;2022-11-23T18:54:15;9.50;99.90
22771;DHT22;11552;50.786;4.332;2022-11-23T18:56:40;9.50;99.90
22771;DHT22;11552;50.786;4.332;2022-11-23T18:59:06;9.50;99.90
22771;DHT22;11552;50.786;4.332;2022-11-23T19:01:34;9.60;99.90
22771;DHT22;11552;50.786;4.332;2022-11-23T19:04:00;9.60;99.90
22771;DHT22;11552;50.786;4.332;2022-11-23T19:06:26;9.60;99.90
22771;DHT22;11552;50.786;4.332;2022-11-23T19:08:52;9.60;99.90
22771;DHT22;11552;50.786;4.332;2022-11-23T19:11:22;9.70;99.90